sensor_id;sensor_type;location;lat;lon;timestamp;P1;durP1;ratioP1;P2;durP2;ratioP2
23634;SDS011;11994;51.038;16.974;2024-03-08T07:11:33;50.40;;;32.90;;
23634;SDS011;11994;51.038;16.974;2024-03-08T07:13:59;51.30;;;33.00;;
23634;SDS011;11994;51.038;16.974;2024-03-08T07:16:28;47.70;;;31.70;;
23634;SDS011;11994;51.038;16.974;2024-03-08T07:18:53;49.40;;;33.50;;
23634;SDS011;11994;51.038;16.974;2024-03-08T07:21:19;51.80;;;33.10;;
23634;SDS011;11994;51.038;16.974;2024-03-08T07:23:45;55.50;;;34.60;;
23634;SDS011;11994;51.038;16.974;2024-03-08T07:26:26;50.00;;;34.30;;
23634;SDS011;11994;51.038;16.974;2024-03-08T07:29:33;47.60;;;33.00;;
23634;SDS011;11994;51.038;16.974;2024-03-08T07:32:01;48.70;;;32.70;;
23634;SDS011;11994;51.038;16.974;2024-03-08T07:34:37;48.70;;;32.00;;
23634;SDS011;11994;51.038;16.974;2024-03-08T07:37:05;51.20;;;33.30;;
23634;SDS011;11994;51.038;16.974;2024-03-08T07:39:35;53.00;;;35.60;;
23634;SDS011;11994;51.038;16.974;2024-03-08T07:42:01;57.20;;;36.90;;
23634;SDS011;11994;51.038;16.974;2024-03-08T07:44:27;56.80;;;36.70;;
23634;SDS011;11994;51.038;16.974;2024-03-08T07:46:53;58.50;;;38.70;;
23634;SDS011;11994;51.038;16.974;2024-03-08T07:49:18;56.70;;;36.00;;
23634;SDS011;11994;51.038;16.974;2024-03-08T07:51:43;56.00;;;36.50;;
23634;SDS011;11994;51.038;16.974;2024-03-08T07:54:08;54.00;;;36.20;;
23634;SDS011;11994;51.038;16.974;2024-03-08T07:56:34;66.20;;;39.60;;
23634;SDS011;11994;51.038;16.974;2024-03-08T07:59:02;56.60;;;36.90;;
23634;SDS011;11994;51.038;16.974;2024-03-08T08:01:29;59.80;;;37.90;;
23634;SDS011;11994;51.038;16.974;2024-03-08T08:03:55;58.50;;;38.90;;
23634;SDS011;11994;51.038;16.974;2024-03-08T08:06:21;60.80;;;39.60;;
23634;SDS011;11994;51.038;16.974;2024-03-08T08:08:48;59.90;;;39.40;;
23634;SDS011;11994;51.038;16.974;2024-03-08T08:11:14;59.30;;;37.60;;
23634;SDS011;11994;51.038;16.974;2024-03-08T08:13:41;54.40;;;35.80;;
23634;SDS011;11994;51.038;16.974;2024-03-08T08:16:08;63.80;;;38.70;;
23634;SDS011;11994;51.038;16.974;2024-03-08T08:18:34;58.40;;;39.90;;
23634;SDS011;11994;51.038;16.974;2024-03-08T08:21:00;63.30;;;40.70;;
23634;SDS011;11994;51.038;16.974;2024-03-08T08:23:26;62.30;;;40.70;;
23634;SDS011;11994;51.038;16.974;2024-03-08T08:25:52;58.60;;;39.90;;
23634;SDS011;11994;51.038;16.974;2024-03-08T08:28:18;62.40;;;41.90;;
23634;SDS011;11994;51.038;16.974;2024-03-08T08:30:46;55.90;;;37.70;;
23634;SDS011;11994;51.038;16.974;2024-03-08T08:33:12;51.90;;;35.60;;
23634;SDS011;11994;51.038;16.974;2024-03-08T08:35:38;51.00;;;35.60;;
23634;SDS011;11994;51.038;16.974;2024-03-08T08:38:04;55.90;;;37.10;;
23634;SDS011;11994;51.038;16.974;2024-03-08T08:40:29;57.30;;;38.20;;
23634;SDS011;11994;51.038;16.974;2024-03-08T08:42:57;54.80;;;38.30;;
23634;SDS011;11994;51.038;16.974;2024-03-08T08:45:23;59.00;;;41.30;;
23634;SDS011;11994;51.038;16.974;2024-03-08T08:47:48;54.60;;;38.00;;
23634;SDS011;11994;51.038;16.974;2024-03-08T08:50:14;58.40;;;39.40;;
23634;SDS011;11994;51.038;16.974;2024-03-08T08:52:41;54.50;;;37.50;;
23634;SDS011;11994;51.038;16.974;2024-03-08T08:55:09;56.30;;;37.60;;
23634;SDS011;11994;51.038;16.974;2024-03-08T08:57:39;51.70;;;35.50;;
23634;SDS011;11994;51.038;16.974;2024-03-08T09:00:05;55.20;;;38.80;;
23634;SDS011;11994;51.038;16.974;2024-03-08T09:02:36;60.50;;;41.10;;
23634;SDS011;11994;51.038;16.974;2024-03-08T09:05:02;56.50;;;38.60;;
23634;SDS011;11994;51.038;16.974;2024-03-08T09:07:28;57.50;;;38.80;;
23634;SDS011;11994;51.038;16.974;2024-03-08T09:09:54;62.30;;;37.40;;
23634;SDS011;11994;51.038;16.974;2024-03-08T09:12:22;53.60;;;36.60;;
23634;SDS011;11994;51.038;16.974;2024-03-08T09:14:48;48.40;;;35.80;;
23634;SDS011;11994;51.038;16.974;2024-03-08T09:17:14;47.70;;;32.50;;
23634;SDS011;11994;51.038;16.974;2024-03-08T09:22:10;44.00;;;31.60;;
23634;SDS011;11994;51.038;16.974;2024-03-08T09:24:36;59.50;;;38.30;;
23634;SDS011;11994;51.038;16.974;2024-03-08T09:27:01;48.70;;;34.30;;
23634;SDS011;11994;51.038;16.974;2024-03-08T09:29:26;49.60;;;36.20;;
23634;SDS011;11994;51.038;16.974;2024-03-08T09:31:52;50.00;;;35.80;;
23634;SDS011;11994;51.038;16.974;2024-03-08T09:34:17;46.20;;;34.00;;
23634;SDS011;11994;51.038;16.974;2024-03-08T09:36:43;46.70;;;33.10;;
23634;SDS011;11994;51.038;16.974;2024-03-08T09:39:09;46.60;;;34.30;;
23634;SDS011;11994;51.038;16.974;2024-03-08T09:41:34;45.20;;;33.60;;
23634;SDS011;11994;51.038;16.974;2024-03-08T09:44:00;43.80;;;31.60;;
23634;SDS011;11994;51.038;16.974;2024-03-08T09:46:26;47.10;;;32.30;;
23634;SDS011;11994;51.038;16.974;2024-03-08T09:48:55;42.80;;;31.60;;
23634;SDS011;11994;51.038;16.974;2024-03-08T09:51:26;43.30;;;32.80;;
23634;SDS011;11994;51.038;16.974;2024-03-08T09:53:54;49.80;;;36.40;;
23634;SDS011;11994;51.038;16.974;2024-03-08T09:56:19;47.20;;;35.00;;
23634;SDS011;11994;51.038;16.974;2024-03-08T09:58:48;46.10;;;34.90;;
23634;SDS011;11994;51.038;16.974;2024-03-08T10:01:36;48.00;;;35.80;;
23634;SDS011;11994;51.038;16.974;2024-03-08T10:04:03;51.60;;;37.00;;
23634;SDS011;11994;51.038;16.974;2024-03-08T10:06:29;51.20;;;36.00;;
23634;SDS011;11994;51.038;16.974;2024-03-08T10:08:54;46.20;;;32.80;;
23634;SDS011;11994;51.038;16.974;2024-03-08T10:11:20;43.70;;;32.20;;
23634;SDS011;11994;51.038;16.974;2024-03-08T10:13:47;47.70;;;34.60;;
23634;SDS011;11994;51.038;16.974;2024-03-08T10:16:13;44.70;;;35.20;;
23634;SDS011;11994;51.038;16.974;2024-03-08T10:18:39;44.30;;;32.80;;
23634;SDS011;11994;51.038;16.974;2024-03-08T10:21:06;44.00;;;33.20;;
23634;SDS011;11994;51.038;16.974;2024-03-08T10:23:35;42.70;;;33.00;;
23634;SDS011;11994;51.038;16.974;2024-03-08T10:26:10;43.80;;;32.80;;
23634;SDS011;11994;51.038;16.974;2024-03-08T10:28:44;48.60;;;36.60;;
23634;SDS011;11994;51.038;16.974;2024-03-08T10:31:10;46.70;;;36.30;;
23634;SDS011;11994;51.038;16.974;2024-03-08T10:33:36;49.60;;;36.10;;
23634;SDS011;11994;51.038;16.974;2024-03-08T10:36:03;48.30;;;34.80;;
23634;SDS011;11994;51.038;16.974;2024-03-08T10:38:31;48.50;;;34.60;;
23634;SDS011;11994;51.038;16.974;2024-03-08T10:41:00;46.60;;;32.50;;
23634;SDS011;11994;51.038;16.974;2024-03-08T10:43:26;43.40;;;32.30;;
23634;SDS011;11994;51.038;16.974;2024-03-08T10:46:01;47.60;;;34.00;;
23634;SDS011;11994;51.038;16.974;2024-03-08T10:48:37;48.40;;;34.50;;
23634;SDS011;11994;51.038;16.974;2024-03-08T10:51:09;47.10;;;34.40;;
23634;SDS011;11994;51.038;16.974;2024-03-08T10:53:36;44.60;;;32.40;;
23634;SDS011;11994;51.038;16.974;2024-03-08T10:56:06;42.60;;;32.90;;
23634;SDS011;11994;51.038;16.974;2024-03-08T10:58:32;43.90;;;32.80;;
23634;SDS011;11994;51.038;16.974;2024-03-08T11:01:00;45.50;;;34.70;;
23634;SDS011;11994;51.038;16.974;2024-03-08T11:06:17;38.70;;;29.10;;
23634;SDS011;11994;51.038;16.974;2024-03-08T11:08:44;39.50;;;28.40;;
23634;SDS011;11994;51.038;16.974;2024-03-08T11:13:55;41.80;;;30.50;;
23634;SDS011;11994;51.038;16.974;2024-03-08T11:19:05;44.80;;;32.60;;
23634;SDS011;11994;51.038;16.974;2024-03-08T11:21:50;40.10;;;30.60;;
23634;SDS011;11994;51.038;16.974;2024-03-08T11:24:22;39.50;;;30.40;;
23634;SDS011;11994;51.038;16.974;2024-03-08T11:26:48;36.50;;;27.90;;
23634;SDS011;11994;51.038;16.974;2024-03-08T11:32:10;35.30;;;26.60;;
23634;SDS011;11994;51.038;16.974;2024-03-08T11:34:47;41.00;;;27.70;;
23634;SDS011;11994;51.038;16.974;2024-03-08T11:37:17;36.60;;;27.20;;
23634;SDS011;11994;51.038;16.974;2024-03-08T11:39:50;36.10;;;28.20;;
23634;SDS011;11994;51.038;16.974;2024-03-08T11:42:17;37.70;;;29.20;;
23634;SDS011;11994;51.038;16.974;2024-03-08T11:44:44;36.80;;;28.30;;
23634;SDS011;11994;51.038;16.974;2024-03-08T11:47:12;38.60;;;28.10;;
23634;SDS011;11994;51.038;16.974;2024-03-08T11:49:39;36.50;;;28.30;;
23634;SDS011;11994;51.038;16.974;2024-03-08T11:52:11;34.00;;;25.60;;
23634;SDS011;11994;51.038;16.974;2024-03-08T11:54:38;33.40;;;25.90;;
23634;SDS011;11994;51.038;16.974;2024-03-08T11:57:04;35.80;;;25.00;;
23634;SDS011;11994;51.038;16.974;2024-03-08T11:59:30;36.70;;;26.70;;
23634;SDS011;11994;51.038;16.974;2024-03-08T12:02:03;37.80;;;26.80;;
23634;SDS011;11994;51.038;16.974;2024-03-08T12:04:30;35.50;;;26.00;;
23634;SDS011;11994;51.038;16.974;2024-03-08T12:06:56;34.80;;;24.50;;
23634;SDS011;11994;51.038;16.974;2024-03-08T12:09:26;34.60;;;25.50;;
23634;SDS011;11994;51.038;16.974;2024-03-08T12:11:52;35.00;;;25.90;;
23634;SDS011;11994;51.038;16.974;2024-03-08T12:14:17;34.10;;;24.90;;
23634;SDS011;11994;51.038;16.974;2024-03-08T12:16:43;28.80;;;22.10;;
23634;SDS011;11994;51.038;16.974;2024-03-08T12:19:09;29.80;;;22.80;;
23634;SDS011;11994;51.038;16.974;2024-03-08T12:21:35;28.20;;;21.60;;
23634;SDS011;11994;51.038;16.974;2024-03-08T12:24:07;28.80;;;22.40;;
23634;SDS011;11994;51.038;16.974;2024-03-08T12:26:35;29.00;;;22.20;;
23634;SDS011;11994;51.038;16.974;2024-03-08T12:31:57;29.20;;;22.50;;
23634;SDS011;11994;51.038;16.974;2024-03-08T12:34:26;32.60;;;24.40;;
23634;SDS011;11994;51.038;16.974;2024-03-08T12:36:53;31.50;;;23.90;;
23634;SDS011;11994;51.038;16.974;2024-03-08T12:39:20;30.00;;;22.80;;
23634;SDS011;11994;51.038;16.974;2024-03-08T12:41:52;33.20;;;23.50;;
23634;SDS011;11994;51.038;16.974;2024-03-08T12:44:18;31.90;;;22.90;;
23634;SDS011;11994;51.038;16.974;2024-03-08T12:46:46;26.80;;;20.30;;
23634;SDS011;11994;51.038;16.974;2024-03-08T12:49:13;25.60;;;19.30;;
23634;SDS011;11994;51.038;16.974;2024-03-08T12:51:42;28.00;;;19.70;;
23634;SDS011;11994;51.038;16.974;2024-03-08T12:54:08;29.70;;;22.10;;
23634;SDS011;11994;51.038;16.974;2024-03-08T12:56:34;30.00;;;23.60;;
23634;SDS011;11994;51.038;16.974;2024-03-08T12:59:02;26.00;;;18.40;;
23634;SDS011;11994;51.038;16.974;2024-03-08T13:01:29;24.90;;;17.90;;
23634;SDS011;11994;51.038;16.974;2024-03-08T13:03:58;23.30;;;17.90;;
23634;SDS011;11994;51.038;16.974;2024-03-08T13:06:24;23.70;;;18.20;;
23634;SDS011;11994;51.038;16.974;2024-03-08T13:08:52;25.30;;;18.80;;
23634;SDS011;11994;51.038;16.974;2024-03-08T13:11:19;24.90;;;20.00;;
23634;SDS011;11994;51.038;16.974;2024-03-08T13:13:45;26.00;;;20.10;;
23634;SDS011;11994;51.038;16.974;2024-03-08T13:16:11;26.60;;;18.60;;
23634;SDS011;11994;51.038;16.974;2024-03-08T13:18:40;28.70;;;19.20;;
23634;SDS011;11994;51.038;16.974;2024-03-08T13:21:11;24.30;;;19.30;;
23634;SDS011;11994;51.038;16.974;2024-03-08T13:23:39;24.80;;;18.90;;
23634;SDS011;11994;51.038;16.974;2024-03-08T13:26:06;23.40;;;18.70;;
23634;SDS011;11994;51.038;16.974;2024-03-08T13:28:32;22.70;;;18.00;;
23634;SDS011;11994;51.038;16.974;2024-03-08T13:31:02;23.40;;;17.30;;
23634;SDS011;11994;51.038;16.974;2024-03-08T13:33:31;23.30;;;18.60;;
23634;SDS011;11994;51.038;16.974;2024-03-08T13:35:59;25.50;;;20.10;;
23634;SDS011;11994;51.038;16.974;2024-03-08T13:38:26;24.00;;;19.30;;
23634;SDS011;11994;51.038;16.974;2024-03-08T13:40:51;27.00;;;21.10;;
23634;SDS011;11994;51.038;16.974;2024-03-08T13:43:17;26.50;;;20.60;;
23634;SDS011;11994;51.038;16.974;2024-03-08T13:45:42;29.20;;;20.10;;
23634;SDS011;11994;51.038;16.974;2024-03-08T13:48:08;26.70;;;20.00;;
23634;SDS011;11994;51.038;16.974;2024-03-08T13:50:37;25.40;;;19.60;;
23634;SDS011;11994;51.038;16.974;2024-03-08T13:53:03;26.10;;;19.70;;
23634;SDS011;11994;51.038;16.974;2024-03-08T13:55:29;27.90;;;20.40;;
23634;SDS011;11994;51.038;16.974;2024-03-08T13:57:55;25.90;;;19.20;;
23634;SDS011;11994;51.038;16.974;2024-03-08T14:00:22;27.00;;;19.40;;
23634;SDS011;11994;51.038;16.974;2024-03-08T14:02:50;24.40;;;19.30;;
23634;SDS011;11994;51.038;16.974;2024-03-08T14:05:15;24.50;;;19.40;;
23634;SDS011;11994;51.038;16.974;2024-03-08T14:07:41;24.40;;;19.30;;
23634;SDS011;11994;51.038;16.974;2024-03-08T14:10:07;24.30;;;17.90;;
23634;SDS011;11994;51.038;16.974;2024-03-08T14:12:34;25.20;;;18.10;;
23634;SDS011;11994;51.038;16.974;2024-03-08T14:15:00;23.50;;;19.00;;
23634;SDS011;11994;51.038;16.974;2024-03-08T14:17:26;26.20;;;20.00;;
23634;SDS011;11994;51.038;16.974;2024-03-08T14:19:52;27.10;;;19.80;;
23634;SDS011;11994;51.038;16.974;2024-03-08T14:22:18;23.20;;;18.50;;
23634;SDS011;11994;51.038;16.974;2024-03-08T14:24:43;24.10;;;18.40;;
23634;SDS011;11994;51.038;16.974;2024-03-08T14:27:09;26.50;;;18.70;;
23634;SDS011;11994;51.038;16.974;2024-03-08T14:29:37;24.90;;;18.70;;
23634;SDS011;11994;51.038;16.974;2024-03-08T14:32:03;26.20;;;19.10;;
23634;SDS011;11994;51.038;16.974;2024-03-08T14:34:32;21.80;;;17.60;;
23634;SDS011;11994;51.038;16.974;2024-03-08T14:36:59;22.40;;;18.00;;
23634;SDS011;11994;51.038;16.974;2024-03-08T14:39:25;24.90;;;18.50;;
23634;SDS011;11994;51.038;16.974;2024-03-08T14:41:54;26.10;;;18.60;;
23634;SDS011;11994;51.038;16.974;2024-03-08T14:44:23;26.10;;;17.90;;
23634;SDS011;11994;51.038;16.974;2024-03-08T14:46:51;22.60;;;17.60;;
23634;SDS011;11994;51.038;16.974;2024-03-08T14:49:17;20.80;;;17.90;;
23634;SDS011;11994;51.038;16.974;2024-03-08T14:51:43;23.90;;;18.60;;
23634;SDS011;11994;51.038;16.974;2024-03-08T14:54:09;23.60;;;18.20;;
23634;SDS011;11994;51.038;16.974;2024-03-08T14:56:35;25.20;;;18.90;;
23634;SDS011;11994;51.038;16.974;2024-03-08T14:59:01;33.10;;;21.20;;
23634;SDS011;11994;51.038;16.974;2024-03-08T15:01:26;28.20;;;21.10;;
23634;SDS011;11994;51.038;16.974;2024-03-08T15:03:54;25.10;;;19.00;;
23634;SDS011;11994;51.038;16.974;2024-03-08T15:06:20;25.20;;;20.20;;
23634;SDS011;11994;51.038;16.974;2024-03-08T15:08:46;29.20;;;21.70;;
23634;SDS011;11994;51.038;16.974;2024-03-08T15:11:12;29.00;;;21.60;;
23634;SDS011;11994;51.038;16.974;2024-03-08T15:13:46;27.70;;;21.00;;
23634;SDS011;11994;51.038;16.974;2024-03-08T15:16:11;27.00;;;20.90;;
23634;SDS011;11994;51.038;16.974;2024-03-08T15:18:42;26.90;;;20.60;;
23634;SDS011;11994;51.038;16.974;2024-03-08T15:21:11;30.10;;;23.70;;
23634;SDS011;11994;51.038;16.974;2024-03-08T15:23:42;29.60;;;21.60;;
23634;SDS011;11994;51.038;16.974;2024-03-08T15:26:11;33.10;;;21.60;;
23634;SDS011;11994;51.038;16.974;2024-03-08T15:28:37;32.30;;;24.50;;
23634;SDS011;11994;51.038;16.974;2024-03-08T15:31:03;30.90;;;23.40;;
23634;SDS011;11994;51.038;16.974;2024-03-08T15:33:36;30.40;;;23.30;;
23634;SDS011;11994;51.038;16.974;2024-03-08T15:36:13;32.00;;;23.40;;
23634;SDS011;11994;51.038;16.974;2024-03-08T15:38:43;31.00;;;23.70;;
23634;SDS011;11994;51.038;16.974;2024-03-08T15:41:12;30.50;;;23.80;;
23634;SDS011;11994;51.038;16.974;2024-03-08T15:43:38;33.40;;;23.80;;
23634;SDS011;11994;51.038;16.974;2024-03-08T15:46:04;31.80;;;24.20;;
23634;SDS011;11994;51.038;16.974;2024-03-08T15:48:34;32.10;;;24.70;;
23634;SDS011;11994;51.038;16.974;2024-03-08T15:51:00;34.10;;;25.20;;
23634;SDS011;11994;51.038;16.974;2024-03-08T15:53:31;38.00;;;28.10;;
23634;SDS011;11994;51.038;16.974;2024-03-08T15:55:58;39.50;;;31.10;;
23634;SDS011;11994;51.038;16.974;2024-03-08T15:58:23;37.20;;;28.90;;
23634;SDS011;11994;51.038;16.974;2024-03-08T16:00:49;40.50;;;30.70;;
23634;SDS011;11994;51.038;16.974;2024-03-08T16:03:17;35.00;;;26.80;;
23634;SDS011;11994;51.038;16.974;2024-03-08T16:05:44;33.80;;;25.00;;
23634;SDS011;11994;51.038;16.974;2024-03-08T16:08:13;35.30;;;27.00;;
23634;SDS011;11994;51.038;16.974;2024-03-08T16:10:47;35.00;;;26.80;;
23634;SDS011;11994;51.038;16.974;2024-03-08T16:13:19;34.80;;;26.90;;
23634;SDS011;11994;51.038;16.974;2024-03-08T16:15:49;39.20;;;28.30;;
23634;SDS011;11994;51.038;16.974;2024-03-08T16:18:16;38.60;;;28.60;;
23634;SDS011;11994;51.038;16.974;2024-03-08T16:20:46;44.80;;;29.40;;
23634;SDS011;11994;51.038;16.974;2024-03-08T16:23:14;43.90;;;29.70;;
23634;SDS011;11994;51.038;16.974;2024-03-08T16:25:41;41.90;;;31.00;;
23634;SDS011;11994;51.038;16.974;2024-03-08T16:28:07;42.90;;;31.70;;
23634;SDS011;11994;51.038;16.974;2024-03-08T16:30:36;41.20;;;31.20;;
23634;SDS011;11994;51.038;16.974;2024-03-08T16:33:02;43.80;;;31.40;;
23634;SDS011;11994;51.038;16.974;2024-03-08T16:35:30;42.80;;;30.30;;
23634;SDS011;11994;51.038;16.974;2024-03-08T16:37:56;39.40;;;30.10;;
23634;SDS011;11994;51.038;16.974;2024-03-08T16:40:22;41.80;;;31.30;;
23634;SDS011;11994;51.038;16.974;2024-03-08T16:42:49;42.60;;;30.20;;
23634;SDS011;11994;51.038;16.974;2024-03-08T16:45:22;39.70;;;30.40;;
23634;SDS011;11994;51.038;16.974;2024-03-08T16:47:48;42.30;;;30.70;;
23634;SDS011;11994;51.038;16.974;2024-03-08T16:50:16;40.20;;;30.20;;
23634;SDS011;11994;51.038;16.974;2024-03-08T16:52:42;42.00;;;30.10;;
23634;SDS011;11994;51.038;16.974;2024-03-08T16:55:08;40.10;;;26.40;;
23634;SDS011;11994;51.038;16.974;2024-03-08T16:57:45;45.30;;;27.20;;
23634;SDS011;11994;51.038;16.974;2024-03-08T17:00:19;44.90;;;28.60;;
23634;SDS011;11994;51.038;16.974;2024-03-08T17:02:53;46.70;;;31.90;;
23634;SDS011;11994;51.038;16.974;2024-03-08T17:05:19;46.30;;;32.30;;
23634;SDS011;11994;51.038;16.974;2024-03-08T17:07:45;49.20;;;33.60;;
23634;SDS011;11994;51.038;16.974;2024-03-08T17:10:13;49.10;;;34.10;;
23634;SDS011;11994;51.038;16.974;2024-03-08T17:12:44;50.80;;;35.90;;
23634;SDS011;11994;51.038;16.974;2024-03-08T17:15:17;46.00;;;35.00;;
23634;SDS011;11994;51.038;16.974;2024-03-08T17:17:43;45.30;;;32.80;;
23634;SDS011;11994;51.038;16.974;2024-03-08T17:20:12;49.20;;;34.70;;
23634;SDS011;11994;51.038;16.974;2024-03-08T17:22:45;48.30;;;34.20;;
23634;SDS011;11994;51.038;16.974;2024-03-08T17:25:13;51.30;;;37.90;;
23634;SDS011;11994;51.038;16.974;2024-03-08T17:27:46;53.70;;;36.20;;
23634;SDS011;11994;51.038;16.974;2024-03-08T17:30:21;52.70;;;39.00;;
23634;SDS011;11994;51.038;16.974;2024-03-08T17:32:49;50.90;;;38.60;;
23634;SDS011;11994;51.038;16.974;2024-03-08T17:35:17;51.30;;;38.90;;
23634;SDS011;11994;51.038;16.974;2024-03-08T17:37:47;51.50;;;37.10;;
23634;SDS011;11994;51.038;16.974;2024-03-08T17:40:15;46.10;;;33.70;;
23634;SDS011;11994;51.038;16.974;2024-03-08T17:42:47;45.60;;;33.80;;
23634;SDS011;11994;51.038;16.974;2024-03-08T17:45:30;49.80;;;35.60;;
23634;SDS011;11994;51.038;16.974;2024-03-08T17:47:57;49.90;;;35.50;;
23634;SDS011;11994;51.038;16.974;2024-03-08T17:50:25;48.10;;;35.60;;
23634;SDS011;11994;51.038;16.974;2024-03-08T17:52:53;49.30;;;35.70;;
23634;SDS011;11994;51.038;16.974;2024-03-08T17:55:19;52.70;;;37.30;;
23634;SDS011;11994;51.038;16.974;2024-03-08T17:57:49;53.00;;;39.30;;
23634;SDS011;11994;51.038;16.974;2024-03-08T18:00:17;53.40;;;40.20;;
23634;SDS011;11994;51.038;16.974;2024-03-08T18:03:00;54.20;;;38.70;;
23634;SDS011;11994;51.038;16.974;2024-03-08T18:05:26;54.80;;;39.40;;
23634;SDS011;11994;51.038;16.974;2024-03-08T18:08:01;60.40;;;42.70;;
23634;SDS011;11994;51.038;16.974;2024-03-08T18:10:27;68.60;;;48.50;;
23634;SDS011;11994;51.038;16.974;2024-03-08T18:12:55;63.50;;;46.90;;
23634;SDS011;11994;51.038;16.974;2024-03-08T18:15:24;64.40;;;44.30;;
23634;SDS011;11994;51.038;16.974;2024-03-08T18:17:52;55.20;;;41.20;;
23634;SDS011;11994;51.038;16.974;2024-03-08T18:20:19;52.90;;;38.10;;
23634;SDS011;11994;51.038;16.974;2024-03-08T18:22:55;58.70;;;38.40;;
23634;SDS011;11994;51.038;16.974;2024-03-08T18:25:32;55.20;;;41.10;;
23634;SDS011;11994;51.038;16.974;2024-03-08T18:27:59;56.40;;;39.70;;
23634;SDS011;11994;51.038;16.974;2024-03-08T18:30:33;61.60;;;40.70;;
23634;SDS011;11994;51.038;16.974;2024-03-08T18:33:01;62.90;;;41.90;;
23634;SDS011;11994;51.038;16.974;2024-03-08T18:35:27;58.00;;;40.80;;
23634;SDS011;11994;51.038;16.974;2024-03-08T18:37:53;61.10;;;42.70;;
23634;SDS011;11994;51.038;16.974;2024-03-08T18:40:22;62.10;;;44.00;;
23634;SDS011;11994;51.038;16.974;2024-03-08T18:42:48;59.20;;;44.20;;
23634;SDS011;11994;51.038;16.974;2024-03-08T18:45:16;60.00;;;42.70;;
23634;SDS011;11994;51.038;16.974;2024-03-08T18:47:43;59.90;;;44.20;;
23634;SDS011;11994;51.038;16.974;2024-03-08T18:50:13;62.00;;;46.00;;
23634;SDS011;11994;51.038;16.974;2024-03-08T18:52:46;63.00;;;47.30;;
23634;SDS011;11994;51.038;16.974;2024-03-08T18:55:15;62.90;;;45.80;;
23634;SDS011;11994;51.038;16.974;2024-03-08T18:57:46;56.90;;;41.00;;
23634;SDS011;11994;51.038;16.974;2024-03-08T19:00:13;72.10;;;47.30;;
23634;SDS011;11994;51.038;16.974;2024-03-08T19:02:55;71.50;;;46.40;;
23634;SDS011;11994;51.038;16.974;2024-03-08T19:05:23;69.90;;;46.90;;
23634;SDS011;11994;51.038;16.974;2024-03-08T19:07:50;73.90;;;49.90;;
23634;SDS011;11994;51.038;16.974;2024-03-08T19:10:23;75.20;;;50.10;;
23634;SDS011;11994;51.038;16.974;2024-03-08T19:12:51;79.10;;;50.60;;
23634;SDS011;11994;51.038;16.974;2024-03-08T19:15:20;78.90;;;51.10;;
23634;SDS011;11994;51.038;16.974;2024-03-08T19:17:51;75.70;;;49.60;;
23634;SDS011;11994;51.038;16.974;2024-03-08T19:20:18;77.60;;;51.60;;
23634;SDS011;11994;51.038;16.974;2024-03-08T19:22:48;110.80;;;70.60;;
23634;SDS011;11994;51.038;16.974;2024-03-08T19:25:19;194.70;;;104.10;;
23634;SDS011;11994;51.038;16.974;2024-03-08T19:27:46;157.50;;;96.40;;
23634;SDS011;11994;51.038;16.974;2024-03-08T19:30:13;141.80;;;86.30;;
23634;SDS011;11994;51.038;16.974;2024-03-08T19:32:43;79.90;;;53.50;;
23634;SDS011;11994;51.038;16.974;2024-03-08T19:35:12;76.00;;;50.80;;
23634;SDS011;11994;51.038;16.974;2024-03-08T19:37:43;107.50;;;66.80;;
23634;SDS011;11994;51.038;16.974;2024-03-08T19:40:10;210.50;;;123.80;;
23634;SDS011;11994;51.038;16.974;2024-03-08T19:42:49;195.50;;;122.80;;
23634;SDS011;11994;51.038;16.974;2024-03-08T19:45:24;127.00;;;85.60;;
23634;SDS011;11994;51.038;16.974;2024-03-08T19:47:54;99.90;;;68.40;;
23634;SDS011;11994;51.038;16.974;2024-03-08T19:50:25;93.00;;;62.00;;
23634;SDS011;11994;51.038;16.974;2024-03-08T19:52:52;86.90;;;58.60;;
23634;SDS011;11994;51.038;16.974;2024-03-08T19:55:19;79.00;;;53.20;;
23634;SDS011;11994;51.038;16.974;2024-03-08T19:57:46;92.10;;;54.30;;
23634;SDS011;11994;51.038;16.974;2024-03-08T20:00:19;90.50;;;56.20;;
23634;SDS011;11994;51.038;16.974;2024-03-08T20:02:50;92.20;;;58.70;;
23634;SDS011;11994;51.038;16.974;2024-03-08T20:05:19;86.10;;;55.70;;
23634;SDS011;11994;51.038;16.974;2024-03-08T20:07:46;78.20;;;55.00;;
23634;SDS011;11994;51.038;16.974;2024-03-08T20:10:14;78.10;;;53.80;;
23634;SDS011;11994;51.038;16.974;2024-03-08T20:12:42;78.30;;;51.80;;
23634;SDS011;11994;51.038;16.974;2024-03-08T20:15:08;79.00;;;52.40;;
23634;SDS011;11994;51.038;16.974;2024-03-08T20:17:37;91.00;;;57.30;;
23634;SDS011;11994;51.038;16.974;2024-03-08T20:20:06;85.30;;;57.90;;
23634;SDS011;11994;51.038;16.974;2024-03-08T20:22:43;84.00;;;55.50;;
23634;SDS011;11994;51.038;16.974;2024-03-08T20:25:32;82.90;;;55.90;;
23634;SDS011;11994;51.038;16.974;2024-03-08T20:28:02;87.50;;;58.80;;
23634;SDS011;11994;51.038;16.974;2024-03-08T20:30:30;87.80;;;56.30;;
23634;SDS011;11994;51.038;16.974;2024-03-08T20:32:56;85.00;;;53.40;;
23634;SDS011;11994;51.038;16.974;2024-03-08T20:35:24;78.20;;;53.50;;
23634;SDS011;11994;51.038;16.974;2024-03-08T20:37:51;77.10;;;52.80;;
23634;SDS011;11994;51.038;16.974;2024-03-08T20:40:27;81.50;;;53.00;;
23634;SDS011;11994;51.038;16.974;2024-03-08T20:43:04;79.60;;;53.80;;
23634;SDS011;11994;51.038;16.974;2024-03-08T20:45:33;83.10;;;56.10;;
23634;SDS011;11994;51.038;16.974;2024-03-08T20:48:00;87.20;;;57.60;;
23634;SDS011;11994;51.038;16.974;2024-03-08T20:50:28;91.20;;;59.50;;
23634;SDS011;11994;51.038;16.974;2024-03-08T20:52:53;87.20;;;60.40;;
23634;SDS011;11994;51.038;16.974;2024-03-08T20:55:19;93.10;;;60.70;;
23634;SDS011;11994;51.038;16.974;2024-03-08T20:57:47;99.00;;;62.30;;
23634;SDS011;11994;51.038;16.974;2024-03-08T21:00:19;106.10;;;66.50;;
23634;SDS011;11994;51.038;16.974;2024-03-08T21:03:04;92.50;;;60.70;;
23634;SDS011;11994;51.038;16.974;2024-03-08T21:05:33;96.80;;;62.40;;
23634;SDS011;11994;51.038;16.974;2024-03-08T21:08:01;93.60;;;59.50;;
23634;SDS011;11994;51.038;16.974;2024-03-08T21:10:33;91.00;;;58.60;;
23634;SDS011;11994;51.038;16.974;2024-03-08T21:13:00;88.80;;;60.10;;
23634;SDS011;11994;51.038;16.974;2024-03-08T21:15:26;92.30;;;62.10;;
23634;SDS011;11994;51.038;16.974;2024-03-08T21:17:52;91.80;;;61.90;;
23634;SDS011;11994;51.038;16.974;2024-03-08T21:20:18;90.10;;;63.90;;
23634;SDS011;11994;51.038;16.974;2024-03-08T21:22:45;89.70;;;62.30;;
23634;SDS011;11994;51.038;16.974;2024-03-08T21:25:14;84.60;;;57.80;;
23634;SDS011;11994;51.038;16.974;2024-03-08T21:27:46;85.00;;;56.70;;
23634;SDS011;11994;51.038;16.974;2024-03-08T21:30:15;76.20;;;51.80;;
23634;SDS011;11994;51.038;16.974;2024-03-08T21:32:48;71.50;;;47.00;;
23634;SDS011;11994;51.038;16.974;2024-03-08T21:35:16;64.30;;;42.10;;
23634;SDS011;11994;51.038;16.974;2024-03-08T21:37:45;63.60;;;40.70;;
23634;SDS011;11994;51.038;16.974;2024-03-08T21:40:11;68.10;;;45.30;;
23634;SDS011;11994;51.038;16.974;2024-03-08T21:42:37;78.00;;;47.80;;